This is the latest recevied weather packets stored in our database for station/object Waldburg. If no packets are shown the sender has not sent any weather packets the latest 10 day(s).
| Time | Temp. | Humidity | Pressure | Rain* | Wind** | Luminosity | Snow |
|---|---|---|---|---|---|---|---|
| 1777705333 | 13.89° C | 62% | 1021.5 hPa | 0 mm | - | - | - |
| 1777703532 | 12.22° C | 65% | 1021.4 hPa | 0 mm | - | - | - |
| 1777701731 | 11.11° C | 67% | 1021.4 hPa | 0 mm | - | - | - |
| 1777699931 | 10° C | 69% | 1021.3 hPa | 0 mm | - | - | - |
| 1777698131 | 9.44° C | 69% | 1021.3 hPa | 0 mm | - | - | - |
| 1777696331 | 9.44° C | 68% | 1021.1 hPa | 0 mm | - | - | - |
| 1777694533 | 9.44° C | 65% | 1021.1 hPa | 0 mm | - | - | - |
| 1777692731 | 10° C | 65% | 1021 hPa | 0 mm | - | - | - |
| 1777690931 | 10° C | 64% | 1021.1 hPa | 0 mm | - | - | - |
| 1777689134 | 10.56° C | 63% | 1021.3 hPa | 0 mm | - | - | - |
| 1777687332 | 10° C | 64% | 1021.3 hPa | 0 mm | - | - | - |
| 1777685531 | 9.44° C | 63% | 1021.3 hPa | 0 mm | - | - | - |
| 1777683731 | 10° C | 60% | 1021.5 hPa | 0 mm | - | - | - |
| 1777681929 | 11.11° C | 58% | 1021.8 hPa | 0 mm | - | - | - |
| 1777680129 | 11.11° C | 56% | 1021.9 hPa | 0 mm | - | - | - |
| 1777678330 | 11.67° C | 54% | 1021.9 hPa | 0 mm | - | - | - |
| 1777676530 | 11.67° C | 53% | 1022 hPa | 0 mm | - | - | - |
| 1777674730 | 12.22° C | 52% | 1022.1 hPa | 0 mm | - | - | - |
| 1777672931 | 12.78° C | 51% | 1022.1 hPa | 0 mm | - | - | - |
| 1777671130 | 13.33° C | 49% | 1022 hPa | 0 mm | - | - | - |
| 1777669330 | 13.33° C | 48% | 1022 hPa | 0 mm | - | - | - |
| 1777667529 | 13.89° C | 46% | 1022.2 hPa | 0 mm | - | - | - |
| 1777665732 | 14.44° C | 44% | 1022 hPa | 0 mm | - | - | - |
| 1777663929 | 15.56° C | 42% | 1021.9 hPa | 0 mm | - | - | - |
| 1777662130 | 16.11° C | 40% | 1021.9 hPa | 0 mm | - | - | - |
* Rain since midnight (hover to see other rain measurements)
** Current wind speed in m/s (hover to see current wind gust speed)